Time;durP1;ratioP1;P1;durP2;ratioP2;P2;SDS_P1;SDS_P2;PMS_P1;PMS_P2;Temp;Humidity;BMP_temperature;BMP_pressure;BME280_temperature;BME280_humidity;BME280_pressure;Samples;Min_cycle;Max_cycle;Signal;HPM_P1;HPM_P2
2021/12/15 00:00:00;;;;;;;;;;;;;;;26.91;25.04;98574.59;170620;28;1594;-47
2021/12/15 00:00:06;;;;;;;;;;;;;;;26.91;24.77;98578.09;170821;28;853;-47
2021/12/15 00:00:13;;;;;;;;;;;;;;;26.90;25.06;98586.13;171145;28;1125;-47
2021/12/15 00:00:18;;;;;;;;;;;;;;;26.88;24.84;98588.03;171094;28;1122;-47
2021/12/15 00:00:24;;;;;;;;;;;;;;;26.81;24.82;98584.97;169721;28;1487;-47
2021/12/15 00:00:29;;;;;;;;;;;;;;;26.85;24.82;98583.78;170302;29;1051;-47
2021/12/15 00:00:34;;;;;;;;;;;;;;;26.88;25.16;98580.94;171038;28;1067;-46
2021/12/15 00:00:39;;;;;;;;;;;;;;;26.91;24.74;98588.66;171320;28;783;-47
2021/12/15 00:00:44;;;;;;;;;;;;;;;26.85;24.88;98586.44;171134;28;1189;-47
2021/12/15 00:00:50;;;;;;;;;;;;;;;26.88;24.86;98588.03;170955;28;1189;-47
2021/12/15 00:00:55;;;;;;;;;;;;;;;26.81;24.90;98589.41;170561;28;1150;-47
2021/12/15 00:01:00;;;;;;;;;;;;;;;26.84;25.13;98586.53;170134;29;1035;-47
2021/12/15 00:01:06;;;;;;;;;;;;;;;26.86;24.86;98580.22;169797;29;1001;-48
2021/12/15 00:01:11;;;;;;;;;;;;;;;26.87;25.16;98581.91;170459;28;1372;-47
2021/12/15 00:01:16;;;;;;;;;;;;;;;26.88;24.72;98590.69;170095;29;861;-48
2021/12/15 00:01:21;;;;;;;;;;;;;;;26.87;25.04;98589.84;170852;28;1169;-47
2021/12/15 00:01:26;;;;;;;;;;;;;;;26.87;25.16;98581.91;171286;28;731;-47
2021/12/15 00:01:32;;;;;;;;;;;;;;;26.89;24.98;98584.44;170977;28;1181;-49
2021/12/15 00:01:37;;;;;;;;;;;;;;;26.81;24.88;98584.13;171269;28;2399;-47
2021/12/15 00:01:42;;;;;;;;;;;;;;;26.82;24.95;98584.00;171183;28;1220;-47
2021/12/15 00:01:48;;;;;;;;;;;;;;;26.82;24.96;98588.47;170711;28;976;-46
2021/12/15 00:01:56;;;;;;;;;;;;;;;26.83;24.76;98580.41;170621;28;1131;-47
2021/12/15 00:02:02;;;;;;;;;;;;;;;26.83;25.11;98583.06;170885;28;990;-47
2021/12/15 00:02:12;;;;;;;;;;;;;;;26.86;25.03;98585.50;171071;28;1039;-47
2021/12/15 00:02:20;;;;;;;;;;;;;;;26.87;25.12;98581.91;170131;28;980;-46
2021/12/15 00:02:27;;;;;;;;;;;;;;;26.91;24.75;98580.72;171863;28;900;-48
2021/12/15 00:02:33;;;;;;;;;;;;;;;26.89;25.16;98577.34;171034;28;1145;-46
2021/12/15 00:02:38;;;;;;;;;;;;;;;26.90;24.85;98584.34;171411;28;854;-48
2021/12/15 00:02:45;;;;;;;;;;;;;;;26.91;24.99;98575.44;171911;28;1130;-47
2021/12/15 00:02:51;;;;;;;;;;;;;;;26.88;24.91;98578.31;171494;28;1054;-47
2021/12/15 00:02:57;;;;;;;;;;;;;;;26.89;25.07;98580.00;172018;28;885;-47
2021/12/15 00:03:02;;;;;;;;;;;;;;;26.87;25.14;98581.91;170859;28;4955;-47
2021/12/15 00:03:07;;;;;;;;;;;;;;;26.85;24.96;98582.94;171219;28;1225;-47
2021/12/15 00:03:15;;;;;;;;;;;;;;;26.88;24.86;98582.75;170587;29;1233;-47
2021/12/15 00:03:20;;;;;;;;;;;;;;;26.81;25.21;98577.03;171085;28;918;-45
2021/12/15 00:03:25;;;;;;;;;;;;;;;26.89;24.92;98581.78;170908;28;866;-47
2021/12/15 00:03:30;;;;;;;;;;;;;;;26.87;25.00;98587.19;170738;28;1201;-47
2021/12/15 00:03:36;;;;;;;;;;;;;;;26.88;24.93;98582.75;170662;29;861;-47
2021/12/15 00:03:41;;;;;;;;;;;;;;;26.91;24.75;98585.19;170919;28;991;-47
2021/12/15 00:03:46;;;;;;;;;;;;;;;26.85;25.20;98578.50;171254;28;775;-47
2021/12/15 00:03:52;;;;;;;;;;;;;;;26.83;25.22;98580.41;171721;28;1209;-47
2021/12/15 00:03:57;;;;;;;;;;;;;;;26.87;25.18;98587.19;171912;28;850;-47
2021/12/15 00:04:02;;;;;;;;;;;;;;;26.89;24.92;98581.78;171309;28;1097;-47
2021/12/15 00:04:08;;;;;;;;;;;;;;;26.94;25.03;98577.06;170682;28;1832;-47
2021/12/15 00:04:14;;;;;;;;;;;;;;;26.89;25.07;98579.16;170952;28;1325;-47
2021/12/15 00:04:19;;;;;;;;;;;;;;;26.91;24.87;98577.25;171840;28;862;-47
2021/12/15 00:04:24;;;;;;;;;;;;;;;26.89;24.83;98576.50;171816;28;857;-47
2021/12/15 00:04:30;;;;;;;;;;;;;;;26.86;24.91;98579.34;170822;28;1212;-48
2021/12/15 00:04:35;;;;;;;;;;;;;;;26.83;25.22;98576.91;171230;28;842;-46
2021/12/15 00:04:42;;;;;;;;;;;;;;;26.83;25.20;98576.91;171641;28;1182;-48
2021/12/15 00:04:50;;;;;;;;;;;;;;;26.85;24.96;98575.00;171848;28;874;-47
2021/12/15 00:04:56;;;;;;;;;;;;;;;26.80;25.09;98580.63;171953;28;897;-47
2021/12/15 00:05:01;;;;;;;;;;;;;;;26.82;24.90;98573.41;171589;28;1069;-47
2021/12/15 00:05:08;;;;;;;;;;;;;;;26.79;25.10;98578.94;171419;28;822;-47
2021/12/15 00:05:20;;;;;;;;;;;;;;;26.79;24.99;98573.63;171099;28;1154;-47
2021/12/15 00:05:26;;;;;;;;;;;;;;;26.73;25.06;98573.19;171133;28;1043;-48
2021/12/15 00:05:31;;;;;;;;;;;;;;;26.77;24.96;98577.31;171484;28;1176;-48
2021/12/15 00:05:36;;;;;;;;;;;;;;;26.75;24.94;98572.13;171301;28;889;-47
2021/12/15 00:05:41;;;;;;;;;;;;;;;26.82;25.25;98570.78;171184;28;790;-47
2021/12/15 00:05:49;;;;;;;;;;;;;;;26.81;25.13;98581.47;171355;28;695;-47
2021/12/15 00:05:54;;;;;;;;;;;;;;;26.80;25.01;98577.13;170528;28;1038;-47
2021/12/15 00:05:59;;;;;;;;;;;;;;;26.77;25.19;98579.97;170640;29;942;-47
2021/12/15 00:06:10;;;;;;;;;;;;;;;26.80;24.99;98582.44;171044;28;1210;-47
2021/12/15 00:06:18;;;;;;;;;;;;;;;26.80;24.95;98577.13;171185;28;1126;-47
2021/12/15 00:06:23;;;;;;;;;;;;;;;26.80;24.90;98569.19;171094;28;1099;-47
2021/12/15 00:06:29;;;;;;;;;;;;;;;26.79;25.21;98573.63;170599;29;819;-47
2021/12/15 00:06:34;;;;;;;;;;;;;;;26.78;25.09;98571.06;169924;29;795;-47
2021/12/15 00:06:39;;;;;;;;;;;;;;;26.78;25.10;98574.59;171041;28;1225;-47
2021/12/15 00:06:44;;;;;;;;;;;;;;;26.75;25.16;98579.22;171339;28;888;-47
2021/12/15 00:06:50;;;;;;;;;;;;;;;26.78;25.16;98574.59;170815;28;1157;-47
2021/12/15 00:06:55;;;;;;;;;;;;;;;26.82;25.05;98567.28;170451;29;934;-48
2021/12/15 00:07:00;;;;;;;;;;;;;;;26.78;25.12;98569.31;170626;28;1175;-46
2021/12/15 00:07:05;;;;;;;;;;;;;;;26.81;24.96;98578.81;170213;28;4181;-47
2021/12/15 00:07:10;;;;;;;;;;;;;;;26.79;24.94;98570.16;170559;28;1150;-47
2021/12/15 00:07:16;;;;;;;;;;;;;;;26.84;25.19;98576.81;171350;28;860;-47
2021/12/15 00:07:22;;;;;;;;;;;;;;;26.87;25.22;98567.81;171086;28;774;-47
2021/12/15 00:07:28;;;;;;;;;;;;;;;26.88;25.19;98567.72;170639;29;790;-47
2021/12/15 00:07:33;;;;;;;;;;;;;;;26.84;24.94;98576.81;170543;29;1107;-47
2021/12/15 00:07:38;;;;;;;;;;;;;;;26.82;25.12;98573.41;171087;28;1075;-47
2021/12/15 00:07:43;;;;;;;;;;;;;;;26.85;25.20;98577.66;171172;28;786;-47
2021/12/15 00:07:49;;;;;;;;;;;;;;;26.86;25.27;98574.91;170880;28;952;-47
2021/12/15 00:07:55;;;;;;;;;;;;;;;26.86;24.81;98574.91;169942;29;858;-47
2021/12/15 00:08:01;;;;;;;;;;;;;;;26.93;24.83;98573.53;171109;28;1183;-48
2021/12/15 00:08:11;;;;;;;;;;;;;;;26.87;24.94;98571.31;171147;28;821;-47
2021/12/15 00:08:16;;;;;;;;;;;;;;;26.82;25.08;98573.41;170628;29;869;-47
2021/12/15 00:08:22;;;;;;;;;;;;;;;26.85;24.98;98583.78;170498;28;1118;-47
2021/12/15 00:08:27;;;;;;;;;;;;;;;26.86;24.99;98574.03;171912;28;778;-47
2021/12/15 00:08:32;;;;;;;;;;;;;;;26.83;24.90;98582.22;171223;28;1228;-48
2021/12/15 00:08:38;;;;;;;;;;;;;;;26.86;24.92;98574.91;171766;28;1272;-47
2021/12/15 00:08:44;;;;;;;;;;;;;;;26.90;25.13;98578.19;171183;28;794;-47
2021/12/15 00:08:52;;;;;;;;;;;;;;;26.84;25.10;98582.09;170625;28;1259;-47
2021/12/15 00:08:58;;;;;;;;;;;;;;;26.86;25.07;98580.22;170684;28;1206;-47
2021/12/15 00:09:05;;;;;;;;;;;;;;;26.90;25.02;98581.69;170599;28;1138;-47
2021/12/15 00:09:11;;;;;;;;;;;;;;;26.91;25.05;98572.78;170504;28;1532;-47
2021/12/15 00:09:16;;;;;;;;;;;;;;;26.94;24.99;98582.34;170446;29;1071;-47
2021/12/15 00:09:21;;;;;;;;;;;;;;;26.86;25.03;98574.91;170483;28;1035;-47
2021/12/15 00:09:29;;;;;;;;;;;;;;;26.88;24.88;98586.25;169839;28;1816;-47
2021/12/15 00:09:34;;;;;;;;;;;;;;;26.90;25.05;98571.09;170171;28;1490;-48
2021/12/15 00:09:39;;;;;;;;;;;;;;;26.89;24.79;98580.00;170545;29;818;-47
2021/12/15 00:09:45;;;;;;;;;;;;;;;26.87;24.91;98576.63;170745;28;1190;-47
2021/12/15 00:09:50;;;;;;;;;;;;;;;26.84;25.15;98581.25;170663;28;1392;-47
2021/12/15 00:09:55;;;;;;;;;;;;;;;26.86;25.00;98574.03;169869;29;1629;-47
2021/12/15 00:10:00;;;;;;;;;;;;;;;26.88;25.12;98580.94;170327;28;1107;-47
2021/12/15 00:10:06;;;;;;;;;;;;;;;26.90;24.80;98578.19;169891;29;849;-48
2021/12/15 00:10:11;;;;;;;;;;;;;;;26.91;24.94;98579.88;170140;28;1183;-48
2021/12/15 00:10:16;;;;;;;;;;;;;;;26.90;24.90;98575.53;169845;29;956;-47
2021/12/15 00:10:22;;;;;;;;;;;;;;;26.86;25.18;98580.22;170175;28;1115;-46
2021/12/15 00:10:27;;;;;;;;;;;;;;;26.79;24.86;98578.94;170752;28;795;-47
2021/12/15 00:10:32;;;;;;;;;;;;;;;26.81;24.93;98576.19;170530;28;1282;-48
2021/12/15 00:10:38;;;;;;;;;;;;;;;26.87;25.00;98579.25;171371;28;794;-47
2021/12/15 00:10:44;;;;;;;;;;;;;;;26.80;25.06;98577.97;171572;28;1113;-48
2021/12/15 00:10:49;;;;;;;;;;;;;;;26.81;24.87;98576.19;171562;28;1015;-47
2021/12/15 00:10:54;;;;;;;;;;;;;;;26.81;25.06;98574.38;171310;28;1166;-48
2021/12/15 00:11:00;;;;;;;;;;;;;;;26.83;24.92;98583.06;171175;28;4265;-48
2021/12/15 00:11:05;;;;;;;;;;;;;;;26.85;24.81;98575.00;171049;28;842;-47
2021/12/15 00:11:10;;;;;;;;;;;;;;;26.86;24.81;98577.56;171589;28;1170;-47
2021/12/15 00:11:15;;;;;;;;;;;;;;;26.89;25.11;98581.78;171219;28;1059;-46
2021/12/15 00:11:21;;;;;;;;;;;;;;;26.84;25.11;98581.25;171526;28;1185;-47
2021/12/15 00:11:32;;;;;;;;;;;;;;;26.87;24.99;98570.47;171875;28;924;-49
2021/12/15 00:11:38;;;;;;;;;;;;;;;26.88;24.78;98578.31;171727;28;909;-47
2021/12/15 00:11:44;;;;;;;;;;;;;;;26.84;25.04;98582.09;171743;28;1098;-47
2021/12/15 00:11:50;;;;;;;;;;;;;;;26.86;25.10;98576.69;171750;28;1083;-47
2021/12/15 00:11:55;;;;;;;;;;;;;;;26.88;24.79;98577.47;171569;28;1086;-47
2021/12/15 00:12:03;;;;;;;;;;;;;;;26.87;24.78;98575.78;171549;28;1140;-47
2021/12/15 00:12:09;;;;;;;;;;;;;;;26.88;24.88;98580.94;171685;28;1118;-47
2021/12/15 00:12:15;;;;;;;;;;;;;;;26.92;24.75;98573.63;170472;29;822;-47
2021/12/15 00:12:20;;;;;;;;;;;;;;;26.92;24.65;98581.56;171368;28;1099;-48
2021/12/15 00:12:25;;;;;;;;;;;;;;;26.91;24.81;98582.53;170969;28;863;-48
2021/12/15 00:12:30;;;;;;;;;;;;;;;26.90;24.77;98575.53;170154;28;1784;-47
2021/12/15 00:12:36;;;;;;;;;;;;;;;26.85;25.07;98577.66;170184;29;790;-47
2021/12/15 00:12:41;;;;;;;;;;;;;;;26.84;25.25;98582.09;170630;28;890;-47
2021/12/15 00:12:46;;;;;;;;;;;;;;;26.87;25.12;98578.41;170810;28;893;-46
2021/12/15 00:12:51;;;;;;;;;;;;;;;26.86;24.95;98588.16;170613;29;1258;-47
2021/12/15 00:12:57;;;;;;;;;;;;;;;26.86;25.01;98574.91;171145;28;1316;-47
2021/12/15 00:13:02;;;;;;;;;;;;;;;26.88;25.11;98572.16;170738;28;1153;-48
2021/12/15 00:13:07;;;;;;;;;;;;;;;26.88;25.06;98578.31;171089;28;1079;-46
2021/12/15 00:13:13;;;;;;;;;;;;;;;26.87;25.20;98578.41;170694;28;1146;-47
2021/12/15 00:13:19;;;;;;;;;;;;;;;26.81;25.15;98570.88;170959;28;1082;-47
2021/12/15 00:13:24;;;;;;;;;;;;;;;26.81;25.22;98574.38;171063;28;809;-47
2021/12/15 00:13:29;;;;;;;;;;;;;;;26.87;25.03;98576.63;171061;28;1098;-47
2021/12/15 00:13:37;;;;;;;;;;;;;;;26.86;25.06;98580.22;171243;28;818;-48
2021/12/15 00:13:42;;;;;;;;;;;;;;;26.85;25.17;98575.84;171617;28;1098;-47
2021/12/15 00:13:47;;;;;;;;;;;;;;;26.92;25.12;98573.63;171946;28;1008;-47
2021/12/15 00:13:54;;;;;;;;;;;;;;;26.90;24.91;98573.75;171513;28;1154;-47
2021/12/15 00:14:00;;;;;;;;;;;;;;;26.89;24.92;98573.84;171737;28;1077;-48
2021/12/15 00:14:06;;;;;;;;;;;;;;;26.88;25.17;98573.00;171309;28;1014;-47
2021/12/15 00:14:20;;;;;;;;;;;;;;;26.81;25.09;98574.38;171004;28;1157;-47
2021/12/15 00:14:25;;;;;;;;;;;;;;;26.77;24.87;98577.31;170440;29;983;-47
2021/12/15 00:14:31;;;;;;;;;;;;;;;26.82;24.94;98575.22;171434;28;1182;-46
2021/12/15 00:14:36;;;;;;;;;;;;;;;26.82;24.96;98578.72;171224;28;858;-48
2021/12/15 00:14:41;;;;;;;;;;;;;;;26.86;24.74;98579.34;171662;28;1122;-47
2021/12/15 00:14:47;;;;;;;;;;;;;;;26.88;25.11;98570.38;171977;28;797;-47
2021/12/15 00:14:52;;;;;;;;;;;;;;;26.86;24.87;98582.88;171508;28;1299;-47
2021/12/15 00:14:57;;;;;;;;;;;;;;;26.81;25.12;98582.31;171467;28;4292;-48
2021/12/15 00:15:03;;;;;;;;;;;;;;;26.77;24.94;98577.31;171594;28;1204;-47
2021/12/15 00:15:08;;;;;;;;;;;;;;;26.83;25.13;98575.13;170650;28;822;-47
2021/12/15 00:15:13;;;;;;;;;;;;;;;26.85;24.99;98577.66;171236;28;1241;-47
2021/12/15 00:15:19;;;;;;;;;;;;;;;26.87;25.04;98576.63;171929;28;802;-47
2021/12/15 00:15:27;;;;;;;;;;;;;;;26.87;24.91;98575.78;171237;28;813;-47
2021/12/15 00:15:32;;;;;;;;;;;;;;;26.90;25.10;98570.25;170495;29;1036;-47
2021/12/15 00:15:37;;;;;;;;;;;;;;;26.88;25.06;98567.72;170245;28;2210;-47
2021/12/15 00:15:43;;;;;;;;;;;;;;;26.87;24.94;98579.25;170798;28;873;-47
2021/12/15 00:15:48;;;;;;;;;;;;;;;26.89;24.79;98568.56;170607;28;1074;-47
2021/12/15 00:15:53;;;;;;;;;;;;;;;26.91;24.79;98574.59;170537;28;1217;-47
2021/12/15 00:15:59;;;;;;;;;;;;;;;26.90;24.86;98584.34;170123;29;1479;-47
2021/12/15 00:16:04;;;;;;;;;;;;;;;26.83;25.04;98577.75;170778;28;1244;-47
2021/12/15 00:16:10;;;;;;;;;;;;;;;26.82;25.05;98575.22;170386;29;1526;-48
2021/12/15 00:16:15;;;;;;;;;;;;;;;26.81;24.94;98577.03;170421;28;1005;-48
2021/12/15 00:16:23;;;;;;;;;;;;;;;26.81;25.06;98571.72;170389;29;873;-47
2021/12/15 00:16:28;;;;;;;;;;;;;;;26.80;25.24;98580.63;170734;28;1226;-47
2021/12/15 00:16:33;;;;;;;;;;;;;;;26.82;24.90;98572.56;170322;29;1024;-47
2021/12/15 00:16:38;;;;;;;;;;;;;;;26.82;25.24;98577.88;170898;28;1135;-46
2021/12/15 00:16:44;;;;;;;;;;;;;;;26.80;24.89;98575.34;171351;28;940;-47
2021/12/15 00:16:49;;;;;;;;;;;;;;;26.77;25.01;98575.53;171232;28;976;-48
2021/12/15 00:16:54;;;;;;;;;;;;;;;26.73;25.14;98578.50;170989;28;921;-47
2021/12/15 00:16:59;;;;;;;;;;;;;;;26.71;25.05;98582.09;171194;28;1190;-47
2021/12/15 00:17:05;;;;;;;;;;;;;;;26.70;25.02;98571.59;171041;28;817;-47
2021/12/15 00:17:10;;;;;;;;;;;;;;;26.78;24.90;98576.38;171174;28;1166;-47
2021/12/15 00:17:15;;;;;;;;;;;;;;;26.81;25.05;98579.66;171869;28;1320;-47
2021/12/15 00:17:22;;;;;;;;;;;;;;;26.82;24.94;98573.41;171516;28;814;-47
2021/12/15 00:17:28;;;;;;;;;;;;;;;26.75;25.26;98577.44;170544;29;843;-47
2021/12/15 00:17:33;;;;;;;;;;;;;;;26.73;25.22;98581.13;170889;28;1225;-47
2021/12/15 00:17:38;;;;;;;;;;;;;;;26.78;24.93;98573.72;170598;28;1083;-47
2021/12/15 00:17:43;;;;;;;;;;;;;;;26.77;25.20;98578.16;170700;29;909;-46
2021/12/15 00:17:51;;;;;;;;;;;;;;;26.73;24.98;98581.13;171056;28;1095;-48
2021/12/15 00:17:57;;;;;;;;;;;;;;;26.82;25.00;98581.34;170637;29;771;-47
2021/12/15 00:18:02;;;;;;;;;;;;;;;26.79;25.06;98581.59;170471;28;1258;-47
2021/12/15 00:18:07;;;;;;;;;;;;;;;26.77;25.29;98572.03;170598;29;814;-47
2021/12/15 00:18:12;;;;;;;;;;;;;;;26.76;24.91;98572.97;171013;28;1091;-47
2021/12/15 00:18:18;;;;;;;;;;;;;;;26.79;24.96;98575.44;171060;28;790;-47
2021/12/15 00:18:23;;;;;;;;;;;;;;;26.81;25.04;98581.47;170153;28;1099;-47
2021/12/15 00:18:28;;;;;;;;;;;;;;;26.82;25.13;98580.50;170609;28;960;-47
2021/12/15 00:18:33;;;;;;;;;;;;;;;26.82;24.83;98576.06;170471;28;1134;-47
2021/12/15 00:18:42;;;;;;;;;;;;;;;26.73;25.04;98575.84;171285;28;1246;-47
2021/12/15 00:18:47;;;;;;;;;;;;;;;26.79;24.97;98572.78;170767;28;1016;-47
2021/12/15 00:18:53;;;;;;;;;;;;;;;26.81;25.08;98573.53;170075;29;1289;-47
2021/12/15 00:18:58;;;;;;;;;;;;;;;26.80;25.17;98577.13;169310;29;4503;-48
2021/12/15 00:19:04;;;;;;;;;;;;;;;26.82;24.99;98583.16;169859;29;1149;-47
2021/12/15 00:19:09;;;;;;;;;;;;;;;26.84;24.83;98581.25;169962;29;1195;-47
2021/12/15 00:19:14;;;;;;;;;;;;;;;26.83;24.93;98576.91;169724;29;1044;-47
2021/12/15 00:19:19;;;;;;;;;;;;;;;26.77;24.92;98569.38;170569;29;902;-47
2021/12/15 00:19:27;;;;;;;;;;;;;;;26.80;24.78;98580.63;170206;29;1420;-47
2021/12/15 00:19:32;;;;;;;;;;;;;;;26.81;25.25;98573.53;169393;29;1059;-48
2021/12/15 00:19:39;;;;;;;;;;;;;;;26.83;25.07;98574.25;169235;29;791;-47
2021/12/15 00:19:44;;;;;;;;;;;;;;;26.81;24.82;98577.03;169270;29;1131;-47
2021/12/15 00:19:50;;;;;;;;;;;;;;;26.82;25.08;98578.72;170323;29;1071;-48
2021/12/15 00:19:55;;;;;;;;;;;;;;;26.81;24.92;98571.72;168859;29;1789;-47
2021/12/15 00:20:00;;;;;;;;;;;;;;;26.81;25.20;98576.19;169810;28;1266;-47
2021/12/15 00:20:06;;;;;;;;;;;;;;;26.78;25.21;98571.06;170398;29;822;-48
2021/12/15 00:20:13;;;;;;;;;;;;;;;26.81;25.08;98574.38;170624;28;1127;-48
2021/12/15 00:20:18;;;;;;;;;;;;;;;26.87;25.06;98579.25;169724;29;1630;-47
2021/12/15 00:20:23;;;;;;;;;;;;;;;26.86;24.93;98579.34;170525;28;918;-47
2021/12/15 00:20:28;;;;;;;;;;;;;;;26.86;25.10;98569.63;170479;29;1140;-47
2021/12/15 00:20:34;;;;;;;;;;;;;;;26.85;25.02;98575.84;170771;28;1182;-47
2021/12/15 00:20:39;;;;;;;;;;;;;;;26.86;25.14;98577.56;170601;28;798;-47
2021/12/15 00:20:44;;;;;;;;;;;;;;;26.89;24.83;98571.22;170830;28;1138;-47
2021/12/15 00:20:49;;;;;;;;;;;;;;;26.82;24.96;98577.88;171225;28;1245;-47
2021/12/15 00:20:55;;;;;;;;;;;;;;;26.78;24.96;98582.53;170450;28;995;-46
2021/12/15 00:21:00;;;;;;;;;;;;;;;26.82;24.80;98573.41;171038;28;1062;-47
2021/12/15 00:21:05;;;;;;;;;;;;;;;26.83;25.13;98569.81;171267;28;921;-47
2021/12/15 00:21:11;;;;;;;;;;;;;;;26.85;24.88;98572.34;171319;28;1126;-47
2021/12/15 00:21:19;;;;;;;;;;;;;;;26.84;24.74;98571.50;171276;28;981;-47
2021/12/15 00:21:24;;;;;;;;;;;;;;;26.89;25.01;98566.75;171231;28;827;-47
2021/12/15 00:21:29;;;;;;;;;;;;;;;26.90;25.11;98581.69;171556;28;886;-47
2021/12/15 00:21:34;;;;;;;;;;;;;;;26.92;25.05;98569.19;171747;28;1007;-47
2021/12/15 00:21:40;;;;;;;;;;;;;;;26.93;25.06;98567.38;171715;28;862;-47
2021/12/15 00:21:45;;;;;;;;;;;;;;;26.85;24.83;98569.72;171762;28;892;-47
2021/12/15 00:21:50;;;;;;;;;;;;;;;26.84;24.82;98568.88;171775;28;1193;-48
2021/12/15 00:21:55;;;;;;;;;;;;;;;26.84;25.00;98576.81;171382;28;1149;-47
2021/12/15 00:22:01;;;;;;;;;;;;;;;26.90;24.98;98571.09;171569;28;1184;-47
2021/12/15 00:22:06;;;;;;;;;;;;;;;26.92;24.85;98568.34;171344;28;967;-47
2021/12/15 00:22:11;;;;;;;;;;;;;;;26.92;24.89;98568.34;170813;28;1161;-48
2021/12/15 00:22:16;;;;;;;;;;;;;;;26.92;24.90;98568.34;170778;28;810;-47
2021/12/15 00:22:22;;;;;;;;;;;;;;;26.91;24.93;98569.28;171119;28;1343;-48
2021/12/15 00:22:27;;;;;;;;;;;;;;;26.91;25.09;98570.16;171205;28;932;-47
2021/12/15 00:22:32;;;;;;;;;;;;;;;26.92;25.03;98569.19;170728;28;1040;-47
2021/12/15 00:22:37;;;;;;;;;;;;;;;26.90;24.96;98571.09;171105;28;928;-46
2021/12/15 00:22:43;;;;;;;;;;;;;;;26.90;24.93;98565.81;171204;28;1090;-47
2021/12/15 00:22:52;;;;;;;;;;;;;;;26.91;25.04;98567.50;171263;28;1075;-48
2021/12/15 00:22:57;;;;;;;;;;;;;;;26.91;24.71;98572.78;170814;28;4725;-49
2021/12/15 00:23:02;;;;;;;;;;;;;;;26.95;24.97;98574.28;170609;28;1153;-46
2021/12/15 00:23:08;;;;;;;;;;;;;;;26.95;24.85;98569.00;169602;29;988;-47
2021/12/15 00:23:13;;;;;;;;;;;;;;;26.94;24.70;98566.47;169894;29;1242;-47
2021/12/15 00:23:19;;;;;;;;;;;;;;;26.96;25.03;98575.13;169999;29;1151;-47
2021/12/15 00:23:24;;;;;;;;;;;;;;;26.93;24.85;98570.88;169932;29;1032;-48
2021/12/15 00:23:29;;;;;;;;;;;;;;;26.96;24.97;98568.03;170057;29;1162;-46
2021/12/15 00:23:35;;;;;;;;;;;;;;;26.91;24.99;98567.50;169089;29;1018;-47
2021/12/15 00:23:40;;;;;;;;;;;;;;;26.92;24.92;98566.53;169445;29;1155;-47
2021/12/15 00:23:45;;;;;;;;;;;;;;;26.85;25.01;98575.84;170671;29;1059;-47
2021/12/15 00:23:50;;;;;;;;;;;;;;;26.77;25.20;98570.22;170234;29;1205;-47
2021/12/15 00:23:57;;;;;;;;;;;;;;;26.76;25.01;98573.81;170428;29;1026;-47
2021/12/15 00:24:03;;;;;;;;;;;;;;;26.81;25.10;98570.88;170216;29;1138;-47
2021/12/15 00:24:08;;;;;;;;;;;;;;;26.86;25.05;98571.41;169239;29;783;-47
2021/12/15 00:24:13;;;;;;;;;;;;;;;26.85;24.96;98575.84;170464;28;1364;-47
2021/12/15 00:24:18;;;;;;;;;;;;;;;26.85;24.78;98578.50;171097;28;1194;-47
2021/12/15 00:24:24;;;;;;;;;;;;;;;26.84;24.89;98576.81;171328;28;873;-47
2021/12/15 00:24:30;;;;;;;;;;;;;;;26.86;24.99;98560.81;170707;28;1242;-49
2021/12/15 00:24:35;;;;;;;;;;;;;;;26.82;24.93;98568.13;170400;29;917;-47
2021/12/15 00:24:40;;;;;;;;;;;;;;;26.83;24.81;98571.63;170847;28;1194;-47
2021/12/15 00:24:45;;;;;;;;;;;;;;;26.87;25.03;98573.13;170674;28;874;-47
2021/12/15 00:24:51;;;;;;;;;;;;;;;26.90;24.75;98571.09;170605;28;1066;-47
2021/12/15 00:24:56;;;;;;;;;;;;;;;26.86;24.74;98574.03;171409;28;881;-47
2021/12/15 00:25:02;;;;;;;;;;;;;;;26.87;25.13;98566.03;170336;28;991;-47
2021/12/15 00:25:07;;;;;;;;;;;;;;;26.88;24.85;98578.31;170477;29;906;-48
2021/12/15 00:25:12;;;;;;;;;;;;;;;26.88;24.72;98566.88;170521;28;1028;-47
2021/12/15 00:25:18;;;;;;;;;;;;;;;26.77;24.92;98567.59;171090;28;1103;-47
2021/12/15 00:25:24;;;;;;;;;;;;;;;26.82;24.87;98572.56;171411;28;866;-46
2021/12/15 00:25:30;;;;;;;;;;;;;;;26.85;25.13;98567.91;170575;28;1162;-47
2021/12/15 00:25:35;;;;;;;;;;;;;;;26.82;24.84;98570.78;170277;29;803;-48
2021/12/15 00:25:41;;;;;;;;;;;;;;;26.81;25.19;98571.72;171049;28;1070;-47
2021/12/15 00:25:47;;;;;;;;;;;;;;;26.81;25.19;98571.72;170840;28;846;-48
2021/12/15 00:25:52;;;;;;;;;;;;;;;26.76;25.16;98568.53;170544;28;1094;-47
2021/12/15 00:25:57;;;;;;;;;;;;;;;26.81;25.10;98570.88;170696;29;1008;-47
2021/12/15 00:26:02;;;;;;;;;;;;;;;26.77;24.82;98564.94;170627;28;1133;-47
2021/12/15 00:26:07;;;;;;;;;;;;;;;26.71;25.22;98570.66;170750;28;1068;-47
2021/12/15 00:26:13;;;;;;;;;;;;;;;26.65;25.29;98571.06;170577;28;1277;-47
2021/12/15 00:26:18;;;;;;;;;;;;;;;26.69;25.30;98568.09;171203;28;898;-48
2021/12/15 00:26:23;;;;;;;;;;;;;;;26.78;25.04;98573.72;170749;28;948;-48
2021/12/15 00:26:28;;;;;;;;;;;;;;;26.79;24.95;98571.00;171045;28;1166;-47
2021/12/15 00:26:34;;;;;;;;;;;;;;;26.79;24.87;98571.00;170487;28;1316;-47
2021/12/15 00:26:39;;;;;;;;;;;;;;;26.79;24.89;98568.34;170872;28;1044;-47
2021/12/15 00:26:44;;;;;;;;;;;;;;;26.82;25.19;98562.84;171285;28;833;-46
2021/12/15 00:26:49;;;;;;;;;;;;;;;26.86;24.86;98568.75;170951;28;1139;-47
2021/12/15 00:26:55;;;;;;;;;;;;;;;26.87;24.91;98568.66;170701;29;799;-47
2021/12/15 00:27:03;;;;;;;;;;;;;;;26.87;24.98;98566.03;170641;28;4296;-48
2021/12/15 00:27:08;;;;;;;;;;;;;;;26.88;25.04;98564.22;170683;29;843;-46
2021/12/15 00:27:13;;;;;;;;;;;;;;;26.87;24.87;98567.81;171382;28;1060;-47
2021/12/15 00:27:18;;;;;;;;;;;;;;;26.86;24.93;98569.63;171882;28;1067;-47
2021/12/15 00:27:24;;;;;;;;;;;;;;;26.87;24.85;98568.66;171725;28;1102;-47
2021/12/15 00:27:29;;;;;;;;;;;;;;;26.87;24.86;98567.81;170238;29;1122;-47
2021/12/15 00:27:34;;;;;;;;;;;;;;;26.83;24.92;98574.25;171141;28;869;-47
2021/12/15 00:27:40;;;;;;;;;;;;;;;26.84;24.98;98563.56;171244;28;1009;-48
2021/12/15 00:27:45;;;;;;;;;;;;;;;26.85;24.76;98570.56;171221;28;917;-47
2021/12/15 00:27:50;;;;;;;;;;;;;;;26.84;24.98;98566.22;171595;28;1123;-47
2021/12/15 00:27:55;;;;;;;;;;;;;;;26.85;24.87;98572.34;171264;28;1008;-47
2021/12/15 00:28:00;;;;;;;;;;;;;;;26.87;25.06;98568.66;171202;28;1134;-47
2021/12/15 00:28:06;;;;;;;;;;;;;;;26.83;25.19;98568.97;171551;28;798;-47
2021/12/15 00:28:11;;;;;;;;;;;;;;;26.73;25.10;98571.41;171186;28;1221;-47
2021/12/15 00:28:17;;;;;;;;;;;;;;;26.74;25.09;98566.97;171695;28;869;-47
2021/12/15 00:28:22;;;;;;;;;;;;;;;26.82;25.07;98569.94;171879;28;1212;-47
2021/12/15 00:28:27;;;;;;;;;;;;;;;26.84;25.05;98576.81;170671;28;1563;-47
2021/12/15 00:28:32;;;;;;;;;;;;;;;26.81;25.14;98573.53;171044;28;1063;-47
2021/12/15 00:28:38;;;;;;;;;;;;;;;26.83;24.82;98566.31;171701;28;1134;-46
2021/12/15 00:28:43;;;;;;;;;;;;;;;26.85;25.18;98572.34;171858;28;813;-46
2021/12/15 00:28:50;;;;;;;;;;;;;;;26.83;24.83;98555.75;171493;28;1166;-47
2021/12/15 00:28:55;;;;;;;;;;;;;;;26.86;25.18;98564.34;171815;28;897;-47
2021/12/15 00:29:02;;;;;;;;;;;;;;;26.84;25.14;98560.91;170913;28;1094;-47
2021/12/15 00:29:07;;;;;;;;;;;;;;;26.80;24.89;98572.69;170530;29;890;-48
2021/12/15 00:29:12;;;;;;;;;;;;;;;26.83;24.99;98571.63;170470;28;1008;-47
2021/12/15 00:29:18;;;;;;;;;;;;;;;26.85;24.92;98564.41;170578;29;743;-48
2021/12/15 00:29:24;;;;;;;;;;;;;;;26.90;25.07;98570.25;170834;28;1123;-48
2021/12/15 00:29:29;;;;;;;;;;;;;;;26.90;24.92;98565.81;171248;28;787;-47
2021/12/15 00:29:34;;;;;;;;;;;;;;;26.85;24.95;98557.31;170779;28;1359;-47
2021/12/15 00:29:39;;;;;;;;;;;;;;;26.92;25.17;98565.69;170352;28;1558;-47
2021/12/15 00:29:45;;;;;;;;;;;;;;;26.89;24.94;98563.28;169777;28;1593;-47
2021/12/15 00:29:50;;;;;;;;;;;;;;;26.82;24.84;98567.28;170162;29;1008;-48
2021/12/15 00:29:55;;;;;;;;;;;;;;;26.84;24.82;98560.91;170345;29;736;-47
2021/12/15 00:30:00;;;;;;;;;;;;;;;26.77;25.10;98572.88;170992;28;1182;-47
2021/12/15 00:30:06;;;;;;;;;;;;;;;26.82;24.99;98575.22;170661;29;921;-47
2021/12/15 00:30:11;;;;;;;;;;;;;;;26.81;25.00;98569.09;170080;28;1371;-47
2021/12/15 00:30:17;;;;;;;;;;;;;;;26.84;25.14;98574.16;170597;29;925;-47
2021/12/15 00:30:22;;;;;;;;;;;;;;;26.76;25.23;98568.53;170806;28;1091;-47
2021/12/15 00:30:27;;;;;;;;;;;;;;;26.77;24.95;98575.53;171079;28;810;-48